
Distance (Route):
Temperature : -50.0°C
Humidity : 0%
Pressure : 0hPa| Receiver | Frames | First received | Last received |
|---|---|---|---|
| WB7NNF | 348 | 2026-09-02 05:16:13 | 2026-09-02 07:42:02 |
| Receiver | Date | Latitude | Longitude | Direction | Speed | Altitude | Climb | Temperature | Humidity | Pressure | Voltage | Killtimer | Uptime | BKT | XDATA |
|---|---|---|---|---|---|---|---|---|---|---|---|---|---|---|---|
| WB7NNF | 2026-09-02 07:42:02 | 48.48811 | -117.24943 | 3° | 91km/h | 10415m | -4.8m/s | -50.0°C | 0% | 0hPa | 0V | 00:00:00 | 00:00:00 | 00:00:00 | |
| WB7NNF | 2026-09-02 07:41:34 | 48.48174 | -117.24966 | 2° | 89km/h | 10554m | -5.0m/s | -51.3°C | 0% | 0hPa | 0V | 00:00:00 | 00:00:00 | 00:00:00 | |
| WB7NNF | 2026-09-02 07:40:56 | 48.47297 | -117.24948 | 358° | 88km/h | 10752m | -5.4m/s | -53.0°C | 0% | 0hPa | 0V | 00:00:00 | 00:00:00 | 00:00:00 | |
| WB7NNF | 2026-09-02 07:39:46 | 48.45758 | -117.24789 | 357° | 84km/h | 11124m | -5.5m/s | -56.1°C | 0% | 0hPa | 0V | 00:00:00 | 00:00:00 | 00:00:00 | |
| WB7NNF | 2026-09-02 07:39:23 | 48.45273 | -117.24728 | 354° | 82km/h | 11252m | -5.7m/s | -56.8°C | 0% | 0hPa | 0V | 00:00:00 | 00:00:00 | 00:00:00 | |
| WB7NNF | 2026-09-02 07:39:02 | 48.44831 | -117.24644 | 355° | 93km/h | 11366m | -5.8m/s | -56.2°C | 0% | 0hPa | 0V | 00:00:00 | 00:00:00 | 00:00:00 | |
| WB7NNF | 2026-09-02 07:38:40 | 48.44288 | -117.24595 | 358° | 106km/h | 11492m | -6.0m/s | -56.6°C | 0% | 0hPa | 0V | 00:00:00 | 00:00:00 | 00:00:00 | |
| WB7NNF | 2026-09-02 07:38:20 | 48.43732 | -117.24539 | 357° | 108km/h | 11613m | -6.1m/s | -57.5°C | 0% | 0hPa | 0V | 00:00:00 | 00:00:00 | 00:00:00 | |
| WB7NNF | 2026-09-02 07:37:59 | 48.43160 | -117.24492 | 358° | 110km/h | 11734m | -5.8m/s | -58.5°C | 0% | 0hPa | 0V | 00:00:00 | 00:00:00 | 00:00:00 | |
| WB7NNF | 2026-09-02 07:37:37 | 48.42524 | -117.24417 | 355° | 119km/h | 11859m | -5.4m/s | -58.9°C | 0% | 0hPa | 0V | 00:00:00 | 00:00:00 | 00:00:00 | |
| WB7NNF | 2026-09-02 07:37:16 | 48.41926 | -117.24375 | 4° | 117km/h | 11966m | -5.4m/s | -58.2°C | 0% | 0hPa | 0V | 00:00:00 | 00:00:00 | 00:00:00 | |
| WB7NNF | 2026-09-02 07:36:54 | 48.41303 | -117.24519 | 15° | 110km/h | 12086m | -5.5m/s | -57.4°C | 0% | 0hPa | 0V | 00:00:00 | 00:00:00 | 00:00:00 | |
| WB7NNF | 2026-09-02 07:36:30 | 48.40750 | -117.24818 | 20° | 86km/h | 12219m | -5.1m/s | -56.8°C | 0% | 0hPa | 0V | 00:00:00 | 00:00:00 | 00:00:00 | |
| WB7NNF | 2026-09-02 07:36:05 | 48.40315 | -117.25063 | 15° | 64km/h | 12359m | -5.5m/s | -55.1°C | 0% | 0hPa | 0V | 00:00:00 | 00:00:00 | 00:00:00 | |
| WB7NNF | 2026-09-02 07:35:42 | 48.39936 | -117.25148 | 8° | 69km/h | 12490m | -5.6m/s | -54.7°C | 0% | 0hPa | 0V | 00:00:00 | 00:00:00 | 00:00:00 | |
| WB7NNF | 2026-09-02 07:35:08 | 48.39277 | -117.25375 | 19° | 84km/h | 12688m | -5.8m/s | -52.4°C | 0% | 0hPa | 0V | 00:00:00 | 00:00:00 | 00:00:00 | |
| WB7NNF | 2026-09-02 07:34:47 | 48.38848 | -117.25533 | 14° | 80km/h | 12823m | -6.4m/s | -51.3°C | 0% | 0hPa | 0V | 00:00:00 | 00:00:00 | 00:00:00 | |
| WB7NNF | 2026-09-02 07:34:04 | 48.38050 | -117.26033 | 28° | 80km/h | 13097m | -6.6m/s | -50.6°C | 0% | 0hPa | 0V | 00:00:00 | 00:00:00 | 00:00:00 | |
| WB7NNF | 2026-09-02 07:33:43 | 48.37699 | -117.26322 | 34° | 73km/h | 13232m | -6.7m/s | -50.0°C | 0% | 0hPa | 0V | 00:00:00 | 00:00:00 | 00:00:00 | |
| WB7NNF | 2026-09-02 07:33:19 | 48.37343 | -117.26660 | 33° | 57km/h | 13401m | -6.7m/s | -50.8°C | 0% | 0hPa | 0V | 00:00:00 | 00:00:00 | 00:00:00 | |
| WB7NNF | 2026-09-02 07:32:50 | 48.37040 | -117.26918 | 23° | 44km/h | 13600m | -6.3m/s | -51.0°C | 0% | 0hPa | 0V | 00:00:00 | 00:00:00 | 00:00:00 | |
| WB7NNF | 2026-09-02 07:32:29 | 48.36830 | -117.26997 | 14° | 46km/h | 13734m | -6.6m/s | -51.8°C | 0% | 0hPa | 0V | 00:00:00 | 00:00:00 | 00:00:00 | |
| WB7NNF | 2026-09-02 07:32:05 | 48.36513 | -117.27032 | 359° | 58km/h | 13911m | -7.1m/s | -52.4°C | 0% | 0hPa | 0V | 00:00:00 | 00:00:00 | 00:00:00 | |
| WB7NNF | 2026-09-02 07:26:19 | 48.31603 | -117.29184 | 29° | 47km/h | 16709m | -8.8m/s | -51.5°C | 0% | 0hPa | 0V | 00:00:00 | 00:00:00 | 00:00:00 | |
| WB7NNF | 2026-09-02 07:24:55 | 48.30704 | -117.30231 | 31° | 37km/h | 17486m | -10.3m/s | -51.0°C | 0% | 0hPa | 0V | 00:00:00 | 00:00:00 | 00:00:00 | |
| WB7NNF | 2026-09-02 07:24:21 | 48.30351 | -117.30443 | 36° | 57km/h | 17851m | -11.2m/s | -51.0°C | 0% | 0hPa | 0V | 00:00:00 | 00:00:00 | 00:00:00 | |
| WB7NNF | 2026-09-02 07:24:01 | 48.30120 | -117.30729 | 49° | 57km/h | 18085m | -11.2m/s | -52.0°C | 0% | 0hPa | 0V | 00:00:00 | 00:00:00 | 00:00:00 | |
| WB7NNF | 2026-09-02 07:20:38 | 48.29127 | -117.32064 | 38° | 24km/h | 20215m | -10.5m/s | -53.6°C | 0% | 0hPa | 0V | 00:00:00 | 00:00:00 | 00:00:00 | |
| WB7NNF | 2026-09-02 07:15:07 | 48.28423 | -117.32891 | 60° | 15km/h | 24318m | -14.5m/s | -50.2°C | 0% | 0hPa | 0V | 00:00:00 | 00:00:00 | 00:00:00 | |
| WB7NNF | 2026-09-02 07:14:43 | 48.28399 | -117.32979 | 78° | 16km/h | 24675m | -15.1m/s | -50.4°C | 0% | 0hPa | 0V | 00:00:00 | 00:00:00 | 00:00:00 | |
| WB7NNF | 2026-09-02 07:14:23 | 48.28381 | -117.33051 | 57° | 5km/h | 24979m | -16.2m/s | -51.0°C | 0% | 0hPa | 0V | 00:00:00 | 00:00:00 | 00:00:00 | |
| WB7NNF | 2026-09-02 07:14:00 | 48.28369 | -117.33127 | 117° | 7km/h | 25340m | -15.5m/s | -49.4°C | 0% | 0hPa | 0V | 00:00:00 | 00:00:00 | 00:00:00 | |
| WB7NNF | 2026-09-02 07:13:39 | 48.28406 | -117.33173 | 149° | 11km/h | 25671m | -17.6m/s | -49.1°C | 0% | 0hPa | 0V | 00:00:00 | 00:00:00 | 00:00:00 | |
| WB7NNF | 2026-09-02 07:13:19 | 48.28463 | -117.33133 | 240° | 22km/h | 26030m | -16.4m/s | -49.9°C | 0% | 0hPa | 0V | 00:00:00 | 00:00:00 | 00:00:00 | |
| WB7NNF | 2026-09-02 07:12:57 | 48.28505 | -117.32961 | 295° | 20km/h | 26392m | -17.5m/s | -51.0°C | 0% | 0hPa | 0V | 00:00:00 | 00:00:00 | 00:00:00 | |
| WB7NNF | 2026-09-02 07:12:34 | 48.28427 | -117.32953 | 48° | 7km/h | 26801m | -17.2m/s | -50.6°C | 0% | 0hPa | 0V | 00:00:00 | 00:00:00 | 00:00:00 | |
| WB7NNF | 2026-09-02 07:12:14 | 48.28443 | -117.33051 | 132° | 16km/h | 27181m | -17.1m/s | -49.7°C | 0% | 0hPa | 0V | 00:00:00 | 00:00:00 | 00:00:00 | |
| WB7NNF | 2026-09-02 07:11:53 | 48.28532 | -117.33169 | 169° | 11km/h | 27548m | -19.6m/s | -48.4°C | 0% | 0hPa | 0V | 00:00:00 | 00:00:00 | 00:00:00 | |
| WB7NNF | 2026-09-02 07:11:32 | 48.28601 | -117.33133 | 206° | 15km/h | 27946m | -19.7m/s | -47.9°C | 0% | 0hPa | 0V | 00:00:00 | 00:00:00 | 00:00:00 | |
| WB7NNF | 2026-09-02 07:11:12 | 48.28606 | -117.33035 | 348° | 7km/h | 28377m | -21.5m/s | -47.3°C | 0% | 0hPa | 0V | 00:00:00 | 00:00:00 | 00:00:00 | |
| WB7NNF | 2026-09-02 07:10:51 | 48.28595 | -117.33042 | 333° | 4km/h | 28804m | -22.6m/s | -47.6°C | 0% | 0hPa | 0V | 00:00:00 | 00:00:00 | 00:00:00 | |
| WB7NNF | 2026-09-02 07:10:31 | 48.28543 | -117.33048 | 26° | 26km/h | 29268m | -21.5m/s | -46.5°C | 0% | 0hPa | 0V | 00:00:00 | 00:00:00 | 00:00:00 | |
| WB7NNF | 2026-09-02 07:10:10 | 48.28511 | -117.33171 | 78° | 33km/h | 29716m | -23.6m/s | -46.3°C | 0% | 0hPa | 0V | 00:00:00 | 00:00:00 | 00:00:00 | |
| WB7NNF | 2026-09-02 07:09:50 | 48.28534 | -117.33314 | 132° | 16km/h | 30196m | -21.0m/s | -45.4°C | 0% | 0hPa | 0V | 00:00:00 | 00:00:00 | 00:00:00 | |
| WB7NNF | 2026-09-02 07:09:12 | 48.28625 | -117.33494 | 157° | 20km/h | 31098m | -26.0m/s | -43.4°C | 0% | 0hPa | 0V | 00:00:00 | 00:00:00 | 00:00:00 | |
| WB7NNF | 2026-09-02 07:08:43 | 48.28661 | -117.33473 | 32° | 9km/h | 31887m | -27.7m/s | -41.9°C | 0% | 0hPa | 0V | 00:00:00 | 00:00:00 | 00:00:00 | |
| WB7NNF | 2026-09-02 07:08:21 | 48.28627 | -117.33559 | 181° | 5km/h | 32575m | -39.8m/s | -41.6°C | 0% | 0hPa | 0V | 00:00:00 | 00:00:00 | 00:00:00 | |
| WB7NNF | 2026-09-02 07:08:01 | 48.28629 | -117.33607 | 98° | 15km/h | 33198m | -24.0m/s | -41.6°C | 0% | 0hPa | 0V | 00:00:00 | 00:00:00 | 00:00:00 | |
| WB7NNF | 2026-09-02 07:07:15 | 48.28663 | -117.33957 | 116° | 29km/h | 34534m | -51.3m/s | -38.8°C | 0% | 0hPa | 0V | 00:00:00 | 00:00:00 | 00:00:00 | |
| WB7NNF | 2026-09-02 07:06:54 | 48.28768 | -117.34026 | 229° | 18km/h | 35616m | -54.6m/s | -34.9°C | 0% | 0hPa | 0V | 00:00:00 | 00:00:00 | 00:00:00 | |
| WB7NNF | 2026-09-02 07:06:34 | 48.28790 | -117.33943 | 179° | 4km/h | 36284m | 6.1m/s | -35.4°C | 0% | 0hPa | 0V | 00:00:00 | 00:00:00 | 00:00:00 | |
| WB7NNF | 2026-09-02 07:06:13 | 48.28852 | -117.33972 | 197° | 20km/h | 36160m | 6.6m/s | -35.3°C | 0% | 0hPa | 0V | 00:00:00 | 00:00:00 | 00:00:00 | |
| WB7NNF | 2026-09-02 07:05:53 | 48.28912 | -117.33924 | 242° | 20km/h | 36033m | 6.2m/s | -36.0°C | 0% | 0hPa | 0V | 00:00:00 | 00:00:00 | 00:00:00 | |
| WB7NNF | 2026-09-02 07:05:32 | 48.28981 | -117.33781 | 221° | 15km/h | 35915m | 5.6m/s | -36.0°C | 0% | 0hPa | 0V | 00:00:00 | 00:00:00 | 00:00:00 | |
| WB7NNF | 2026-09-02 07:05:12 | 48.29058 | -117.33632 | 192° | 24km/h | 35797m | 5.3m/s | -35.9°C | 0% | 0hPa | 0V | 00:00:00 | 00:00:00 | 00:00:00 | |
| WB7NNF | 2026-09-02 07:04:52 | 48.29149 | -117.33546 | 210° | 33km/h | 35688m | 5.2m/s | -35.9°C | 0% | 0hPa | 0V | 00:00:00 | 00:00:00 | 00:00:00 | |
| WB7NNF | 2026-09-02 07:04:31 | 48.29282 | -117.33515 | 206° | 24km/h | 35577m | 5.0m/s | -36.2°C | 0% | 0hPa | 0V | 00:00:00 | 00:00:00 | 00:00:00 | |
| WB7NNF | 2026-09-02 07:04:10 | 48.29435 | -117.33490 | 161° | 22km/h | 35477m | 5.2m/s | -36.2°C | 0% | 0hPa | 0V | 00:00:00 | 00:00:00 | 00:00:00 | |
| WB7NNF | 2026-09-02 07:03:50 | 48.29579 | -117.33518 | 153° | 37km/h | 35373m | 5.7m/s | -37.1°C | 0% | 0hPa | 0V | 00:00:00 | 00:00:00 | 00:00:00 | |
| WB7NNF | 2026-09-02 07:03:29 | 48.29740 | -117.33618 | 166° | 37km/h | 35265m | 5.1m/s | -37.9°C | 0% | 0hPa | 0V | 00:00:00 | 00:00:00 | 00:00:00 | |
| WB7NNF | 2026-09-02 07:03:08 | 48.29881 | -117.33709 | 130° | 27km/h | 35157m | 6.9m/s | -38.9°C | 0% | 0hPa | 0V | 00:00:00 | 00:00:00 | 00:00:00 | |
| WB7NNF | 2026-09-02 07:02:48 | 48.30001 | -117.33845 | 85° | 27km/h | 35037m | 4.6m/s | -40.1°C | 0% | 0hPa | 0V | 00:00:00 | 00:00:00 | 00:00:00 | |
| WB7NNF | 2026-09-02 07:02:27 | 48.30117 | -117.34061 | 116° | 37km/h | 34925m | 5.9m/s | -39.8°C | 0% | 0hPa | 0V | 00:00:00 | 00:00:00 | 00:00:00 | |
| WB7NNF | 2026-09-02 07:02:07 | 48.30148 | -117.34283 | 56° | 47km/h | 34795m | 4.7m/s | -39.9°C | 0% | 0hPa | 0V | 00:00:00 | 00:00:00 | 00:00:00 | |
| WB7NNF | 2026-09-02 07:01:46 | 48.30121 | -117.34425 | 63° | 9km/h | 34669m | 7.6m/s | -40.2°C | 0% | 0hPa | 0V | 00:00:00 | 00:00:00 | 00:00:00 | |
| WB7NNF | 2026-09-02 07:01:26 | 48.30098 | -117.34520 | 103° | 27km/h | 34538m | 6.4m/s | -40.6°C | 0% | 0hPa | 0V | 00:00:00 | 00:00:00 | 00:00:00 | |
| WB7NNF | 2026-09-02 07:01:05 | 48.30155 | -117.34676 | 116° | 44km/h | 34409m | 6.0m/s | -40.6°C | 0% | 0hPa | 0V | 00:00:00 | 00:00:00 | 00:00:00 | |
| WB7NNF | 2026-09-02 07:00:45 | 48.30242 | -117.34826 | 122° | 31km/h | 34273m | 6.3m/s | -40.5°C | 0% | 0hPa | 0V | 00:00:00 | 00:00:00 | 00:00:00 | |
| WB7NNF | 2026-09-02 07:00:24 | 48.30319 | -117.34962 | 107° | 38km/h | 34148m | 6.9m/s | -40.3°C | 0% | 0hPa | 0V | 00:00:00 | 00:00:00 | 00:00:00 | |
| WB7NNF | 2026-09-02 07:00:04 | 48.30386 | -117.35164 | 79° | 38km/h | 34017m | 5.2m/s | -40.0°C | 0% | 0hPa | 0V | 00:00:00 | 00:00:00 | 00:00:00 | |
| WB7NNF | 2026-09-02 06:59:23 | 48.30489 | -117.35521 | 76° | 46km/h | 33766m | 7.9m/s | -40.0°C | 0% | 0hPa | 0V | 00:00:00 | 00:00:00 | 00:00:00 | |
| WB7NNF | 2026-09-02 06:58:42 | 48.30468 | -117.35754 | 299° | 16km/h | 33511m | 5.9m/s | -40.2°C | 0% | 0hPa | 0V | 00:00:00 | 00:00:00 | 00:00:00 | |
| WB7NNF | 2026-09-02 06:58:21 | 48.30406 | -117.35854 | 20° | 7km/h | 33390m | 5.4m/s | -40.4°C | 0% | 0hPa | 0V | 00:00:00 | 00:00:00 | 00:00:00 | |
| WB7NNF | 2026-09-02 06:58:01 | 48.30340 | -117.35995 | 67° | 29km/h | 33264m | 6.7m/s | -40.7°C | 0% | 0hPa | 0V | 00:00:00 | 00:00:00 | 00:00:00 | |
| WB7NNF | 2026-09-02 06:57:40 | 48.30299 | -117.36133 | 56° | 46km/h | 33138m | 7.9m/s | -40.6°C | 0% | 0hPa | 0V | 00:00:00 | 00:00:00 | 00:00:00 | |
| WB7NNF | 2026-09-02 06:57:20 | 48.30275 | -117.36229 | 57° | 37km/h | 33016m | 5.5m/s | -41.2°C | 0% | 0hPa | 0V | 00:00:00 | 00:00:00 | 00:00:00 | |
| WB7NNF | 2026-09-02 06:56:59 | 48.30260 | -117.36304 | 31° | 26km/h | 32890m | 6.6m/s | -41.0°C | 0% | 0hPa | 0V | 00:00:00 | 00:00:00 | 00:00:00 | |
| WB7NNF | 2026-09-02 06:56:38 | 48.30271 | -117.36406 | 52° | 18km/h | 32771m | 5.0m/s | -41.0°C | 0% | 0hPa | 0V | 00:00:00 | 00:00:00 | 00:00:00 | |
| WB7NNF | 2026-09-02 06:56:18 | 48.30310 | -117.36557 | 76° | 11km/h | 32646m | 5.2m/s | -41.4°C | 0% | 0hPa | 0V | 00:00:00 | 00:00:00 | 00:00:00 | |
| WB7NNF | 2026-09-02 06:55:57 | 48.30361 | -117.36658 | 166° | 7km/h | 32525m | 6.8m/s | -42.0°C | 0% | 0hPa | 0V | 00:00:00 | 00:00:00 | 00:00:00 | |
| WB7NNF | 2026-09-02 06:55:37 | 48.30386 | -117.36744 | 287° | 15km/h | 32402m | 5.8m/s | -42.0°C | 0% | 0hPa | 0V | 00:00:00 | 00:00:00 | 00:00:00 | |
| WB7NNF | 2026-09-02 06:55:16 | 48.30412 | -117.36844 | 30° | 24km/h | 32287m | 5.8m/s | -42.2°C | 0% | 0hPa | 0V | 00:00:00 | 00:00:00 | 00:00:00 | |
| WB7NNF | 2026-09-02 06:54:56 | 48.30379 | -117.36992 | 69° | 33km/h | 32159m | 5.3m/s | -42.5°C | 0% | 0hPa | 0V | 00:00:00 | 00:00:00 | 00:00:00 | |
| WB7NNF | 2026-09-02 06:54:35 | 48.30374 | -117.37062 | 307° | 13km/h | 32041m | 0.6m/s | -42.4°C | 0% | 0hPa | 0V | 00:00:00 | 00:00:00 | 00:00:00 | |
| WB7NNF | 2026-09-02 06:54:15 | 48.30379 | -117.37082 | 85° | 4km/h | 31909m | 5.8m/s | -42.3°C | 0% | 0hPa | 0V | 00:00:00 | 00:00:00 | 00:00:00 | |
| WB7NNF | 2026-09-02 06:53:54 | 48.30400 | -117.37097 | 111° | 24km/h | 31783m | 4.1m/s | -42.6°C | 0% | 0hPa | 0V | 00:00:00 | 00:00:00 | 00:00:00 | |
| WB7NNF | 2026-09-02 06:53:34 | 48.30443 | -117.37066 | 246° | 35km/h | 31646m | 5.7m/s | -42.7°C | 0% | 0hPa | 0V | 00:00:00 | 00:00:00 | 00:00:00 | |
| WB7NNF | 2026-09-02 06:53:13 | 48.30484 | -117.36999 | 95° | 9km/h | 31510m | 8.5m/s | -42.8°C | 0% | 0hPa | 0V | 00:00:00 | 00:00:00 | 00:00:00 | |
| WB7NNF | 2026-09-02 06:52:52 | 48.30560 | -117.37001 | 124° | 38km/h | 31384m | 5.4m/s | -43.5°C | 0% | 0hPa | 0V | 00:00:00 | 00:00:00 | 00:00:00 | |
| WB7NNF | 2026-09-02 06:52:32 | 48.30677 | -117.37024 | 206° | 16km/h | 31249m | 6.4m/s | -44.0°C | 0% | 0hPa | 0V | 00:00:00 | 00:00:00 | 00:00:00 | |
| WB7NNF | 2026-09-02 06:52:11 | 48.30794 | -117.37094 | 219° | 24km/h | 31121m | 2.7m/s | -43.6°C | 0% | 0hPa | 0V | 00:00:00 | 00:00:00 | 00:00:00 | |
| WB7NNF | 2026-09-02 06:51:47 | 48.30923 | -117.37266 | 84° | 5km/h | 30966m | -2.5m/s | -43.8°C | 0% | 0hPa | 0V | 00:00:00 | 00:00:00 | 00:00:00 | |
| WB7NNF | 2026-09-02 06:51:25 | 48.30994 | -117.37400 | 356° | 22km/h | 30843m | -1.9m/s | -44.2°C | 0% | 0hPa | 0V | 00:00:00 | 00:00:00 | 00:00:00 | |
| WB7NNF | 2026-09-02 06:51:02 | 48.31061 | -117.37490 | 216° | 11km/h | 30704m | 1.2m/s | -44.7°C | 0% | 0hPa | 0V | 00:00:00 | 00:00:00 | 00:00:00 | |
| WB7NNF | 2026-09-02 06:50:42 | 48.31094 | -117.37615 | 101° | 40km/h | 30584m | 5.4m/s | -45.7°C | 0% | 0hPa | 0V | 00:00:00 | 00:00:00 | 00:00:00 | |
| WB7NNF | 2026-09-02 06:50:21 | 48.31087 | -117.37687 | 94° | 46km/h | 30462m | 14.0m/s | -46.2°C | 0% | 0hPa | 0V | 00:00:00 | 00:00:00 | 00:00:00 | |
| WB7NNF | 2026-09-02 06:49:59 | 48.31107 | -117.37779 | 223° | 31km/h | 30330m | 1.9m/s | -46.0°C | 0% | 0hPa | 0V | 00:00:00 | 00:00:00 | 00:00:00 | |
| WB7NNF | 2026-09-02 06:49:38 | 48.31157 | -117.37856 | 257° | 38km/h | 30214m | 7.7m/s | -46.1°C | 0% | 0hPa | 0V | 00:00:00 | 00:00:00 | 00:00:00 | |
| WB7NNF | 2026-09-02 06:49:20 | 48.31162 | -117.37977 | 63° | 46km/h | 30086m | 2.3m/s | -46.0°C | 0% | 0hPa | 0V | 00:00:00 | 00:00:00 | 00:00:00 | |
| WB7NNF | 2026-09-02 06:48:57 | 48.31143 | -117.38121 | 263° | 42km/h | 29960m | 3.8m/s | -46.5°C | 0% | 0hPa | 0V | 00:00:00 | 00:00:00 | 00:00:00 | |
| WB7NNF | 2026-09-02 06:48:37 | 48.31135 | -117.38229 | 205° | 29km/h | 29823m | 11.9m/s | -47.1°C | 0% | 0hPa | 0V | 00:00:00 | 00:00:00 | 00:00:00 | |
| WB7NNF | 2026-09-02 06:47:56 | 48.31138 | -117.38441 | 35° | 44km/h | 29553m | 8.0m/s | -46.5°C | 0% | 0hPa | 0V | 00:00:00 | 00:00:00 | 00:00:00 | |
| WB7NNF | 2026-09-02 06:47:35 | 48.31060 | -117.38552 | 79° | 37km/h | 29426m | 11.7m/s | -46.9°C | 0% | 0hPa | 0V | 00:00:00 | 00:00:00 | 00:00:00 | |
| WB7NNF | 2026-09-02 06:47:13 | 48.30989 | -117.38587 | 23° | 26km/h | 29289m | 2.1m/s | -47.7°C | 0% | 0hPa | 0V | 00:00:00 | 00:00:00 | 00:00:00 | |
| WB7NNF | 2026-09-02 06:46:52 | 48.30946 | -117.38552 | 13° | 33km/h | 29162m | 2.8m/s | -47.9°C | 0% | 0hPa | 0V | 00:00:00 | 00:00:00 | 00:00:00 | |
| WB7NNF | 2026-09-02 06:46:30 | 48.30923 | -117.38491 | 226° | 16km/h | 29018m | 10.4m/s | -48.5°C | 0% | 0hPa | 0V | 00:00:00 | 00:00:00 | 00:00:00 | |
| WB7NNF | 2026-09-02 06:46:09 | 48.30901 | -117.38427 | 312° | 5km/h | 28899m | 14.2m/s | -48.2°C | 0% | 0hPa | 0V | 00:00:00 | 00:00:00 | 00:00:00 | |
| WB7NNF | 2026-09-02 06:45:47 | 48.30880 | -117.38355 | 164° | 42km/h | 28766m | 3.9m/s | -48.1°C | 0% | 0hPa | 0V | 00:00:00 | 00:00:00 | 00:00:00 | |
| WB7NNF | 2026-09-02 06:45:26 | 48.30859 | -117.38316 | 189° | 26km/h | 28641m | 8.7m/s | -47.9°C | 0% | 0hPa | 0V | 00:00:00 | 00:00:00 | 00:00:00 | |
| WB7NNF | 2026-09-02 06:45:05 | 48.30830 | -117.38264 | 255° | 20km/h | 28518m | 0.2m/s | -47.3°C | 0% | 0hPa | 0V | 00:00:00 | 00:00:00 | 00:00:00 | |
| WB7NNF | 2026-09-02 06:44:42 | 48.30742 | -117.38157 | 355° | 68km/h | 28384m | 12.6m/s | -47.3°C | 0% | 0hPa | 0V | 00:00:00 | 00:00:00 | 00:00:00 | |
| WB7NNF | 2026-09-02 06:44:21 | 48.30671 | -117.38006 | 361° | 60km/h | 28246m | 9.2m/s | -47.1°C | 0% | 0hPa | 0V | 00:00:00 | 00:00:00 | 00:00:00 | |
| WB7NNF | 2026-09-02 06:43:59 | 48.30616 | -117.37832 | 331° | 51km/h | 28122m | -1.4m/s | -47.4°C | 0% | 0hPa | 0V | 00:00:00 | 00:00:00 | 00:00:00 | |
| WB7NNF | 2026-09-02 06:43:38 | 48.30632 | -117.37705 | 266° | 47km/h | 27995m | -4.3m/s | -47.1°C | 0% | 0hPa | 0V | 00:00:00 | 00:00:00 | 00:00:00 | |
| WB7NNF | 2026-09-02 06:43:18 | 48.30679 | -117.37653 | 277° | 33km/h | 27874m | -0.7m/s | -47.9°C | 0% | 0hPa | 0V | 00:00:00 | 00:00:00 | 00:00:00 | |
| WB7NNF | 2026-09-02 06:42:56 | 48.30716 | -117.37636 | 69° | 4km/h | 27743m | 8.8m/s | -48.2°C | 0% | 0hPa | 0V | 00:00:00 | 00:00:00 | 00:00:00 | |
| WB7NNF | 2026-09-02 06:42:28 | 48.30778 | -117.37669 | 145° | 24km/h | 27563m | 1.6m/s | -48.3°C | 0% | 0hPa | 0V | 00:00:00 | 00:00:00 | 00:00:00 | |
| WB7NNF | 2026-09-02 06:41:44 | 48.30938 | -117.38004 | 75° | 71km/h | 27307m | 4.3m/s | -49.1°C | 0% | 0hPa | 0V | 00:00:00 | 00:00:00 | 00:00:00 | |
| WB7NNF | 2026-09-02 06:41:23 | 48.30984 | -117.38178 | 59° | 60km/h | 27187m | 10.6m/s | -49.9°C | 0% | 0hPa | 0V | 00:00:00 | 00:00:00 | 00:00:00 | |
| WB7NNF | 2026-09-02 06:40:43 | 48.31055 | -117.38438 | 148° | 13km/h | 26977m | 5.1m/s | -50.5°C | 0% | 0hPa | 0V | 00:00:00 | 00:00:00 | 00:00:00 | |
| WB7NNF | 2026-09-02 06:40:20 | 48.31055 | -117.38495 | 73° | 42km/h | 26839m | 9.9m/s | -50.4°C | 0% | 0hPa | 0V | 00:00:00 | 00:00:00 | 00:00:00 | |
| WB7NNF | 2026-09-02 06:39:58 | 48.31013 | -117.38561 | 39° | 31km/h | 26719m | 5.7m/s | -50.3°C | 0% | 0hPa | 0V | 00:00:00 | 00:00:00 | 00:00:00 | |
| WB7NNF | 2026-09-02 06:39:37 | 48.30968 | -117.38570 | 201° | 37km/h | 26586m | 8.4m/s | -49.9°C | 0% | 0hPa | 0V | 00:00:00 | 00:00:00 | 00:00:00 | |
| WB7NNF | 2026-09-02 06:39:15 | 48.30952 | -117.38519 | 257° | 29km/h | 26460m | 1.6m/s | -50.1°C | 0% | 0hPa | 0V | 00:00:00 | 00:00:00 | 00:00:00 | |
| WB7NNF | 2026-09-02 06:38:49 | 48.30949 | -117.38373 | 251° | 71km/h | 26303m | 4.0m/s | -50.0°C | 0% | 0hPa | 0V | 00:00:00 | 00:00:00 | 00:00:00 | |
| WB7NNF | 2026-09-02 06:38:28 | 48.31007 | -117.38225 | 221° | 66km/h | 26182m | 9.4m/s | -49.3°C | 0% | 0hPa | 0V | 00:00:00 | 00:00:00 | 00:00:00 | |
| WB7NNF | 2026-09-02 06:38:08 | 48.31147 | -117.38051 | 207° | 57km/h | 26068m | -195.2m/s | -48.7°C | 0% | 0hPa | 0V | 00:00:00 | 00:00:00 | 00:00:00 | |
| WB7NNF | 2026-09-02 06:37:46 | 48.31297 | -117.37957 | 208° | 24km/h | 25928m | 10.7m/s | -48.5°C | 0% | 0hPa | 0V | 00:00:00 | 00:00:00 | 00:00:00 | |
| WB7NNF | 2026-09-02 06:37:20 | 48.31458 | -117.37930 | 205° | 24km/h | 25775m | 7.5m/s | -47.9°C | 0% | 0hPa | 0V | 00:00:00 | 00:00:00 | 00:00:00 | |
| WB7NNF | 2026-09-02 06:36:59 | 48.31563 | -117.37993 | 113° | 29km/h | 25658m | 11.0m/s | -47.8°C | 0% | 0hPa | 0V | 00:00:00 | 00:00:00 | 00:00:00 | |
| WB7NNF | 2026-09-02 06:36:37 | 48.31631 | -117.38172 | 18° | 26km/h | 25539m | -0.6m/s | -47.6°C | 0% | 0hPa | 0V | 00:00:00 | 00:00:00 | 00:00:00 | |
| WB7NNF | 2026-09-02 06:36:14 | 48.31682 | -117.38397 | 82° | 27km/h | 25402m | 6.4m/s | -48.4°C | 0% | 0hPa | 0V | 00:00:00 | 00:00:00 | 00:00:00 | |
| WB7NNF | 2026-09-02 06:35:52 | 48.31726 | -117.38550 | 0° | 0km/h | 25290m | 9.9m/s | -48.8°C | 0% | 0hPa | 0V | 00:00:00 | 00:00:00 | 00:00:00 | |
| WB7NNF | 2026-09-02 06:35:31 | 48.31711 | -117.38679 | 192° | 16km/h | 25184m | -4.4m/s | -50.2°C | 0% | 0hPa | 0V | 00:00:00 | 00:00:00 | 00:00:00 | |
| WB7NNF | 2026-09-02 06:35:07 | 48.31656 | -117.38893 | 63° | 27km/h | 25053m | 8.0m/s | -50.9°C | 0% | 0hPa | 0V | 00:00:00 | 00:00:00 | 00:00:00 | |
| WB7NNF | 2026-09-02 06:34:46 | 48.31608 | -117.38982 | 20° | 18km/h | 24950m | 9.8m/s | -51.4°C | 0% | 0hPa | 0V | 00:00:00 | 00:00:00 | 00:00:00 | |
| WB7NNF | 2026-09-02 06:34:26 | 48.31557 | -117.39088 | 235° | 26km/h | 24839m | 4.8m/s | -51.8°C | 0% | 0hPa | 0V | 00:00:00 | 00:00:00 | 00:00:00 | |
| WB7NNF | 2026-09-02 06:33:41 | 48.31449 | -117.39288 | 334° | 26km/h | 24592m | 11.6m/s | -53.0°C | 0% | 0hPa | 0V | 00:00:00 | 00:00:00 | 00:00:00 | |
| WB7NNF | 2026-09-02 06:33:20 | 48.31348 | -117.39347 | 354° | 60km/h | 24479m | 2.0m/s | -53.0°C | 0% | 0hPa | 0V | 00:00:00 | 00:00:00 | 00:00:00 | |
| WB7NNF | 2026-09-02 06:32:58 | 48.31227 | -117.39292 | 330° | 68km/h | 24332m | 8.2m/s | -53.7°C | 0% | 0hPa | 0V | 00:00:00 | 00:00:00 | 00:00:00 | |
| WB7NNF | 2026-09-02 06:32:34 | 48.31143 | -117.39173 | 303° | 66km/h | 24222m | 9.7m/s | -53.2°C | 0% | 0hPa | 0V | 00:00:00 | 00:00:00 | 00:00:00 | |
| WB7NNF | 2026-09-02 06:32:13 | 48.31091 | -117.39062 | 269° | 44km/h | 24115m | -0.8m/s | -52.9°C | 0% | 0hPa | 0V | 00:00:00 | 00:00:00 | 00:00:00 | |
| WB7NNF | 2026-09-02 06:31:52 | 48.31070 | -117.38981 | 131° | 18km/h | 23984m | 6.7m/s | -52.9°C | 0% | 0hPa | 0V | 00:00:00 | 00:00:00 | 00:00:00 | |
| WB7NNF | 2026-09-02 06:31:29 | 48.31064 | -117.38979 | 288° | 22km/h | 23870m | 9.4m/s | -53.1°C | 0% | 0hPa | 0V | 00:00:00 | 00:00:00 | 00:00:00 | |
| WB7NNF | 2026-09-02 06:31:05 | 48.31006 | -117.38995 | 208° | 27km/h | 23736m | 4.8m/s | -52.9°C | 0% | 0hPa | 0V | 00:00:00 | 00:00:00 | 00:00:00 | |
| WB7NNF | 2026-09-02 06:30:44 | 48.30927 | -117.39036 | 342° | 22km/h | 23620m | 0.5m/s | -52.8°C | 0% | 0hPa | 0V | 00:00:00 | 00:00:00 | 00:00:00 | |
| WB7NNF | 2026-09-02 06:30:21 | 48.30781 | -117.39135 | 36° | 42km/h | 23503m | 10.0m/s | -52.5°C | 0% | 0hPa | 0V | 00:00:00 | 00:00:00 | 00:00:00 | |
| WB7NNF | 2026-09-02 06:30:01 | 48.30684 | -117.39203 | 353° | 16km/h | 23397m | 9.4m/s | -52.1°C | 0% | 0hPa | 0V | 00:00:00 | 00:00:00 | 00:00:00 | |
| WB7NNF | 2026-09-02 06:29:40 | 48.30585 | -117.39258 | 5° | 22km/h | 23297m | 9.2m/s | -52.0°C | 0% | 0hPa | 0V | 00:00:00 | 00:00:00 | 00:00:00 | |
| WB7NNF | 2026-09-02 06:29:20 | 48.30501 | -117.39275 | 297° | 15km/h | 23186m | -1.5m/s | -52.3°C | 0% | 0hPa | 0V | 00:00:00 | 00:00:00 | 00:00:00 | |
| WB7NNF | 2026-09-02 06:28:58 | 48.30388 | -117.39290 | 16° | 46km/h | 23067m | -0.3m/s | -52.3°C | 0% | 0hPa | 0V | 00:00:00 | 00:00:00 | 00:00:00 | |
| WB7NNF | 2026-09-02 06:28:35 | 48.30275 | -117.39290 | 203° | 24km/h | 22951m | 6.5m/s | -52.2°C | 0% | 0hPa | 0V | 00:00:00 | 00:00:00 | 00:00:00 | |
| WB7NNF | 2026-09-02 06:28:12 | 48.30190 | -117.39242 | 334° | 60km/h | 22835m | 7.0m/s | -51.8°C | 0% | 0hPa | 0V | 00:00:00 | 00:00:00 | 00:00:00 | |
| WB7NNF | 2026-09-02 06:27:49 | 48.30085 | -117.39128 | 358° | 24km/h | 22725m | 10.9m/s | -51.9°C | 0% | 0hPa | 0V | 00:00:00 | 00:00:00 | 00:00:00 | |
| WB7NNF | 2026-09-02 06:27:28 | 48.30054 | -117.39031 | 349° | 37km/h | 22611m | -0.9m/s | -51.3°C | 0% | 0hPa | 0V | 00:00:00 | 00:00:00 | 00:00:00 | |
| WB7NNF | 2026-09-02 06:27:02 | 48.30102 | -117.38890 | 278° | 47km/h | 22482m | 0.4m/s | -50.8°C | 0% | 0hPa | 0V | 00:00:00 | 00:00:00 | 00:00:00 | |
| WB7NNF | 2026-09-02 06:26:39 | 48.30168 | -117.38826 | 263° | 5km/h | 22365m | 6.6m/s | -51.3°C | 0% | 0hPa | 0V | 00:00:00 | 00:00:00 | 00:00:00 | |
| WB7NNF | 2026-09-02 06:26:17 | 48.30171 | -117.38814 | 192° | 26km/h | 22265m | -2.1m/s | -51.3°C | 0% | 0hPa | 0V | 00:00:00 | 00:00:00 | 00:00:00 | |
| WB7NNF | 2026-09-02 06:25:56 | 48.30117 | -117.38865 | 37° | 31km/h | 22167m | 8.4m/s | -51.8°C | 0% | 0hPa | 0V | 00:00:00 | 00:00:00 | 00:00:00 | |
| WB7NNF | 2026-09-02 06:25:36 | 48.30003 | -117.38913 | 346° | 35km/h | 22066m | -2.1m/s | -51.8°C | 0% | 0hPa | 0V | 00:00:00 | 00:00:00 | 00:00:00 | |
| WB7NNF | 2026-09-02 06:25:11 | 48.29957 | -117.38885 | 338° | 11km/h | 21951m | 7.4m/s | -52.2°C | 0% | 0hPa | 0V | 00:00:00 | 00:00:00 | 00:00:00 | |
| WB7NNF | 2026-09-02 06:24:51 | 48.29952 | -117.38812 | 285° | 18km/h | 21844m | -1.8m/s | -52.5°C | 0% | 0hPa | 0V | 00:00:00 | 00:00:00 | 00:00:00 | |
| WB7NNF | 2026-09-02 06:24:30 | 48.29984 | -117.38818 | 117° | 42km/h | 21730m | 6.7m/s | -52.2°C | 0% | 0hPa | 0V | 00:00:00 | 00:00:00 | 00:00:00 | |
| WB7NNF | 2026-09-02 06:24:08 | 48.29986 | -117.38866 | 5° | 7km/h | 21626m | 9.7m/s | -52.9°C | 0% | 0hPa | 0V | 00:00:00 | 00:00:00 | 00:00:00 | |
| WB7NNF | 2026-09-02 06:23:46 | 48.29966 | -117.38882 | 286° | 20km/h | 21516m | 0.1m/s | -52.7°C | 0% | 0hPa | 0V | 00:00:00 | 00:00:00 | 00:00:00 | |
| WB7NNF | 2026-09-02 06:23:23 | 48.29952 | -117.39001 | 81° | 20km/h | 21399m | 6.5m/s | -53.1°C | 0% | 0hPa | 0V | 00:00:00 | 00:00:00 | 00:00:00 | |
| WB7NNF | 2026-09-02 06:23:03 | 48.29938 | -117.39123 | 357° | 22km/h | 21291m | 1.9m/s | -53.2°C | 0% | 0hPa | 0V | 00:00:00 | 00:00:00 | 00:00:00 | |
| WB7NNF | 2026-09-02 06:22:41 | 48.29888 | -117.39281 | 132° | 37km/h | 21188m | 9.2m/s | -53.0°C | 0% | 0hPa | 0V | 00:00:00 | 00:00:00 | 00:00:00 | |
| WB7NNF | 2026-09-02 06:22:20 | 48.29813 | -117.39462 | 39° | 15km/h | 21082m | 4.1m/s | -52.9°C | 0% | 0hPa | 0V | 00:00:00 | 00:00:00 | 00:00:00 | |
| WB7NNF | 2026-09-02 06:21:57 | 48.29718 | -117.39635 | 66° | 13km/h | 20972m | 1.4m/s | -52.8°C | 0% | 0hPa | 0V | 00:00:00 | 00:00:00 | 00:00:00 | |
| WB7NNF | 2026-09-02 06:21:35 | 48.29637 | -117.39773 | 46° | 49km/h | 20871m | 0.6m/s | -53.0°C | 0% | 0hPa | 0V | 00:00:00 | 00:00:00 | 00:00:00 | |
| WB7NNF | 2026-09-02 06:21:14 | 48.29575 | -117.39874 | 35° | 35km/h | 20779m | 1.1m/s | -52.7°C | 0% | 0hPa | 0V | 00:00:00 | 00:00:00 | 00:00:00 | |
| WB7NNF | 2026-09-02 06:20:54 | 48.29534 | -117.39968 | 245° | 7km/h | 20681m | 8.8m/s | -52.3°C | 0% | 0hPa | 0V | 00:00:00 | 00:00:00 | 00:00:00 | |
| WB7NNF | 2026-09-02 06:20:33 | 48.29516 | -117.40040 | 149° | 24km/h | 20583m | 0.8m/s | -52.0°C | 0% | 0hPa | 0V | 00:00:00 | 00:00:00 | 00:00:00 | |
| WB7NNF | 2026-09-02 06:20:11 | 48.29493 | -117.40161 | 113° | 18km/h | 20478m | 5.1m/s | -52.2°C | 0% | 0hPa | 0V | 00:00:00 | 00:00:00 | 00:00:00 | |
| WB7NNF | 2026-09-02 06:19:48 | 48.29449 | -117.40308 | 47° | 31km/h | 20380m | 8.1m/s | -52.6°C | 0% | 0hPa | 0V | 00:00:00 | 00:00:00 | 00:00:00 | |
| WB7NNF | 2026-09-02 06:19:28 | 48.29335 | -117.40479 | 49° | 46km/h | 20282m | 0.9m/s | -53.2°C | 0% | 0hPa | 0V | 00:00:00 | 00:00:00 | 00:00:00 | |
| WB7NNF | 2026-09-02 06:19:07 | 48.29216 | -117.40593 | 319° | 31km/h | 20178m | 3.6m/s | -53.4°C | 0% | 0hPa | 0V | 00:00:00 | 00:00:00 | 00:00:00 | |
| WB7NNF | 2026-09-02 06:18:43 | 48.29114 | -117.40746 | 360° | 40km/h | 20066m | 6.8m/s | -53.8°C | 0% | 0hPa | 0V | 00:00:00 | 00:00:00 | 00:00:00 | |
| WB7NNF | 2026-09-02 06:18:22 | 48.29032 | -117.40859 | 32° | 38km/h | 19970m | 1.3m/s | -53.8°C | 0% | 0hPa | 0V | 00:00:00 | 00:00:00 | 00:00:00 | |
| WB7NNF | 2026-09-02 06:18:02 | 48.28959 | -117.40939 | 355° | 4km/h | 19871m | 1.1m/s | -53.7°C | 0% | 0hPa | 0V | 00:00:00 | 00:00:00 | 00:00:00 | |
| WB7NNF | 2026-09-02 06:17:42 | 48.28847 | -117.40960 | 2° | 27km/h | 19780m | 6.3m/s | -53.7°C | 0% | 0hPa | 0V | 00:00:00 | 00:00:00 | 00:00:00 | |
| WB7NNF | 2026-09-02 06:17:21 | 48.28725 | -117.40984 | 346° | 38km/h | 19680m | 2.0m/s | -53.2°C | 0% | 0hPa | 0V | 00:00:00 | 00:00:00 | 00:00:00 | |
| WB7NNF | 2026-09-02 06:17:00 | 48.28647 | -117.41035 | 64° | 24km/h | 19584m | 4.1m/s | -53.6°C | 0% | 0hPa | 0V | 00:00:00 | 00:00:00 | 00:00:00 | |
| WB7NNF | 2026-09-02 06:16:38 | 48.28558 | -117.41138 | 356° | 42km/h | 19483m | 2.4m/s | -53.8°C | 0% | 0hPa | 0V | 00:00:00 | 00:00:00 | 00:00:00 | |
| WB7NNF | 2026-09-02 06:16:16 | 48.28471 | -117.41294 | 83° | 37km/h | 19383m | 7.1m/s | -53.9°C | 0% | 0hPa | 0V | 00:00:00 | 00:00:00 | 00:00:00 | |
| WB7NNF | 2026-09-02 06:15:54 | 48.28355 | -117.41440 | 351° | 27km/h | 19280m | 8.1m/s | -53.7°C | 0% | 0hPa | 0V | 00:00:00 | 00:00:00 | 00:00:00 | |
| WB7NNF | 2026-09-02 06:15:33 | 48.28231 | -117.41538 | 60° | 46km/h | 19185m | 8.9m/s | -53.8°C | 0% | 0hPa | 0V | 00:00:00 | 00:00:00 | 00:00:00 | |
| WB7NNF | 2026-09-02 06:15:12 | 48.28068 | -117.41702 | 20° | 37km/h | 19081m | 8.7m/s | -53.9°C | 0% | 0hPa | 0V | 00:00:00 | 00:00:00 | 00:00:00 | |
| WB7NNF | 2026-09-02 06:14:31 | 48.27818 | -117.41927 | 35° | 51km/h | 18874m | 3.6m/s | -52.5°C | 0% | 0hPa | 0V | 00:00:00 | 00:00:00 | 00:00:00 | |
| WB7NNF | 2026-09-02 06:14:11 | 48.27756 | -117.42023 | 78° | 9km/h | 18775m | 1.2m/s | -52.6°C | 0% | 0hPa | 0V | 00:00:00 | 00:00:00 | 00:00:00 | |
| WB7NNF | 2026-09-02 06:13:50 | 48.27730 | -117.42175 | 115° | 15km/h | 18682m | 6.8m/s | -52.4°C | 0% | 0hPa | 0V | 00:00:00 | 00:00:00 | 00:00:00 | |
| WB7NNF | 2026-09-02 06:13:29 | 48.27725 | -117.42344 | 117° | 29km/h | 18585m | 3.6m/s | -51.7°C | 0% | 0hPa | 0V | 00:00:00 | 00:00:00 | 00:00:00 | |
| WB7NNF | 2026-09-02 06:13:09 | 48.27680 | -117.42567 | 29° | 27km/h | 18483m | 1.0m/s | -51.3°C | 0% | 0hPa | 0V | 00:00:00 | 00:00:00 | 00:00:00 | |
| WB7NNF | 2026-09-02 06:12:48 | 48.27607 | -117.42786 | 88° | 47km/h | 18388m | 2.2m/s | -51.0°C | 0% | 0hPa | 0V | 00:00:00 | 00:00:00 | 00:00:00 | |
| WB7NNF | 2026-09-02 06:12:28 | 48.27481 | -117.43028 | 11° | 31km/h | 18288m | 1.6m/s | -51.1°C | 0% | 0hPa | 0V | 00:00:00 | 00:00:00 | 00:00:00 | |
| WB7NNF | 2026-09-02 06:12:08 | 48.27319 | -117.43247 | 53° | 51km/h | 18201m | 5.8m/s | -50.9°C | 0% | 0hPa | 0V | 00:00:00 | 00:00:00 | 00:00:00 | |
| WB7NNF | 2026-09-02 06:11:47 | 48.27114 | -117.43536 | 31° | 46km/h | 18108m | 6.5m/s | -51.4°C | 0% | 0hPa | 0V | 00:00:00 | 00:00:00 | 00:00:00 | |
| WB7NNF | 2026-09-02 06:11:26 | 48.26875 | -117.43845 | 50° | 78km/h | 18019m | 6.2m/s | -51.8°C | 0% | 0hPa | 0V | 00:00:00 | 00:00:00 | 00:00:00 | |
| WB7NNF | 2026-09-02 06:11:04 | 48.26586 | -117.44112 | 2° | 33km/h | 17923m | 2.0m/s | -51.6°C | 0% | 0hPa | 0V | 00:00:00 | 00:00:00 | 00:00:00 | |
| WB7NNF | 2026-09-02 06:10:43 | 48.26345 | -117.44270 | 35° | 71km/h | 17834m | 6.3m/s | -51.3°C | 0% | 0hPa | 0V | 00:00:00 | 00:00:00 | 00:00:00 | |
| WB7NNF | 2026-09-02 06:10:23 | 48.26099 | -117.44375 | 355° | 26km/h | 17743m | 8.8m/s | -50.9°C | 0% | 0hPa | 0V | 00:00:00 | 00:00:00 | 00:00:00 | |
| WB7NNF | 2026-09-02 06:10:02 | 48.25903 | -117.44394 | 345° | 26km/h | 17652m | 0.6m/s | -50.5°C | 0% | 0hPa | 0V | 00:00:00 | 00:00:00 | 00:00:00 | |
| WB7NNF | 2026-09-02 06:09:21 | 48.25540 | -117.44492 | 16° | 40km/h | 17463m | 5.1m/s | -50.6°C | 0% | 0hPa | 0V | 00:00:00 | 00:00:00 | 00:00:00 | |
| WB7NNF | 2026-09-02 06:09:01 | 48.25352 | -117.44731 | 39° | 46km/h | 17359m | 6.8m/s | -51.1°C | 0% | 0hPa | 0V | 00:00:00 | 00:00:00 | 00:00:00 | |
| WB7NNF | 2026-09-02 06:08:40 | 48.25124 | -117.45007 | 30° | 77km/h | 17268m | 3.0m/s | -51.5°C | 0% | 0hPa | 0V | 00:00:00 | 00:00:00 | 00:00:00 | |
| WB7NNF | 2026-09-02 06:08:20 | 48.24859 | -117.45308 | 28° | 71km/h | 17175m | 5.9m/s | -52.1°C | 0% | 0hPa | 0V | 00:00:00 | 00:00:00 | 00:00:00 | |
| WB7NNF | 2026-09-02 06:07:59 | 48.24605 | -117.45521 | 17° | 55km/h | 17086m | 3.0m/s | -52.4°C | 0% | 0hPa | 0V | 00:00:00 | 00:00:00 | 00:00:00 | |
| WB7NNF | 2026-09-02 06:07:39 | 48.24368 | -117.45744 | 42° | 57km/h | 16996m | 2.0m/s | -53.1°C | 0% | 0hPa | 0V | 00:00:00 | 00:00:00 | 00:00:00 | |
| WB7NNF | 2026-09-02 06:07:18 | 48.24151 | -117.45908 | 5° | 62km/h | 16904m | 2.7m/s | -52.6°C | 0% | 0hPa | 0V | 00:00:00 | 00:00:00 | 00:00:00 | |
| WB7NNF | 2026-09-02 06:06:56 | 48.23946 | -117.46084 | 356° | 51km/h | 16801m | 3.2m/s | -52.2°C | 0% | 0hPa | 0V | 00:00:00 | 00:00:00 | 00:00:00 | |
| WB7NNF | 2026-09-02 06:06:35 | 48.23753 | -117.46286 | 55° | 38km/h | 16709m | 4.3m/s | -52.8°C | 0% | 0hPa | 0V | 00:00:00 | 00:00:00 | 00:00:00 | |
| WB7NNF | 2026-09-02 06:06:13 | 48.23528 | -117.46510 | 16° | 46km/h | 16616m | 1.2m/s | -52.3°C | 0% | 0hPa | 0V | 00:00:00 | 00:00:00 | 00:00:00 | |
| WB7NNF | 2026-09-02 06:05:52 | 48.23287 | -117.46712 | 28° | 55km/h | 16518m | 5.8m/s | -51.9°C | 0% | 0hPa | 0V | 00:00:00 | 00:00:00 | 00:00:00 | |
| WB7NNF | 2026-09-02 06:05:32 | 48.23020 | -117.46851 | 41° | 57km/h | 16423m | 6.4m/s | -51.7°C | 0% | 0hPa | 0V | 00:00:00 | 00:00:00 | 00:00:00 | |
| WB7NNF | 2026-09-02 06:05:11 | 48.22757 | -117.46985 | 9° | 62km/h | 16327m | 5.5m/s | -51.7°C | 0% | 0hPa | 0V | 00:00:00 | 00:00:00 | 00:00:00 | |
| WB7NNF | 2026-09-02 06:04:51 | 48.22487 | -117.47178 | 41° | 75km/h | 16228m | 3.4m/s | -51.3°C | 0% | 0hPa | 0V | 00:00:00 | 00:00:00 | 00:00:00 | |
| WB7NNF | 2026-09-02 06:04:30 | 48.22227 | -117.47401 | 14° | 66km/h | 16135m | 3.1m/s | -51.2°C | 0% | 0hPa | 0V | 00:00:00 | 00:00:00 | 00:00:00 | |
| WB7NNF | 2026-09-02 06:04:08 | 48.21915 | -117.47636 | 15° | 49km/h | 16037m | 2.6m/s | -50.8°C | 0% | 0hPa | 0V | 00:00:00 | 00:00:00 | 00:00:00 | |
| WB7NNF | 2026-09-02 06:03:47 | 48.21598 | -117.47804 | 16° | 71km/h | 15942m | 4.4m/s | -51.1°C | 0% | 0hPa | 0V | 00:00:00 | 00:00:00 | 00:00:00 | |
| WB7NNF | 2026-09-02 06:03:27 | 48.21265 | -117.47877 | 18° | 66km/h | 15847m | 2.4m/s | -51.6°C | 0% | 0hPa | 0V | 00:00:00 | 00:00:00 | 00:00:00 | |
| WB7NNF | 2026-09-02 06:03:06 | 48.20954 | -117.47948 | 30° | 58km/h | 15758m | 6.1m/s | -51.6°C | 0% | 0hPa | 0V | 00:00:00 | 00:00:00 | 00:00:00 | |
| WB7NNF | 2026-09-02 06:02:44 | 48.20658 | -117.48010 | 350° | 57km/h | 15671m | 6.7m/s | -51.9°C | 0% | 0hPa | 0V | 00:00:00 | 00:00:00 | 00:00:00 | |
| WB7NNF | 2026-09-02 06:02:24 | 48.20398 | -117.48054 | 26° | 58km/h | 15589m | 3.9m/s | -52.0°C | 0% | 0hPa | 0V | 00:00:00 | 00:00:00 | 00:00:00 | |
| WB7NNF | 2026-09-02 06:02:03 | 48.20088 | -117.48131 | 11° | 66km/h | 15512m | 5.3m/s | -52.1°C | 0% | 0hPa | 0V | 00:00:00 | 00:00:00 | 00:00:00 | |
| WB7NNF | 2026-09-02 06:01:42 | 48.19797 | -117.48187 | 347° | 40km/h | 15433m | 5.1m/s | -52.1°C | 0% | 0hPa | 0V | 00:00:00 | 00:00:00 | 00:00:00 | |
| WB7NNF | 2026-09-02 06:01:21 | 48.19533 | -117.48195 | 359° | 53km/h | 15349m | 6.1m/s | -52.3°C | 0% | 0hPa | 0V | 00:00:00 | 00:00:00 | 00:00:00 | |
| WB7NNF | 2026-09-02 06:01:01 | 48.19290 | -117.48195 | 16° | 24km/h | 15261m | 4.7m/s | -52.8°C | 0% | 0hPa | 0V | 00:00:00 | 00:00:00 | 00:00:00 | |
| WB7NNF | 2026-09-02 06:00:40 | 48.19100 | -117.48262 | 19° | 46km/h | 15176m | 3.8m/s | -53.1°C | 0% | 0hPa | 0V | 00:00:00 | 00:00:00 | 00:00:00 | |
| WB7NNF | 2026-09-02 06:00:20 | 48.18941 | -117.48373 | 27° | 33km/h | 15084m | 5.4m/s | -52.6°C | 0% | 0hPa | 0V | 00:00:00 | 00:00:00 | 00:00:00 | |
| WB7NNF | 2026-09-02 05:59:59 | 48.18788 | -117.48503 | 26° | 49km/h | 14999m | 4.2m/s | -52.0°C | 0% | 0hPa | 0V | 00:00:00 | 00:00:00 | 00:00:00 | |
| WB7NNF | 2026-09-02 05:59:39 | 48.18633 | -117.48675 | 24° | 38km/h | 14907m | 5.7m/s | -51.5°C | 0% | 0hPa | 0V | 00:00:00 | 00:00:00 | 00:00:00 | |
| WB7NNF | 2026-09-02 05:59:18 | 48.18464 | -117.48830 | 51° | 53km/h | 14822m | 5.7m/s | -50.9°C | 0% | 0hPa | 0V | 00:00:00 | 00:00:00 | 00:00:00 | |
| WB7NNF | 2026-09-02 05:58:58 | 48.18277 | -117.49011 | 13° | 57km/h | 14731m | 3.5m/s | -50.5°C | 0% | 0hPa | 0V | 00:00:00 | 00:00:00 | 00:00:00 | |
| WB7NNF | 2026-09-02 05:58:37 | 48.18067 | -117.49242 | 37° | 60km/h | 14639m | 5.5m/s | -50.4°C | 0% | 0hPa | 0V | 00:00:00 | 00:00:00 | 00:00:00 | |
| WB7NNF | 2026-09-02 05:58:17 | 48.17813 | -117.49478 | 25° | 68km/h | 14542m | 2.6m/s | -51.0°C | 0% | 0hPa | 0V | 00:00:00 | 00:00:00 | 00:00:00 | |
| WB7NNF | 2026-09-02 05:57:56 | 48.17512 | -117.49752 | 19° | 49km/h | 14458m | 5.0m/s | -51.3°C | 0% | 0hPa | 0V | 00:00:00 | 00:00:00 | 00:00:00 | |
| WB7NNF | 2026-09-02 05:57:36 | 48.17193 | -117.49976 | 12° | 66km/h | 14366m | 6.1m/s | -51.0°C | 0% | 0hPa | 0V | 00:00:00 | 00:00:00 | 00:00:00 | |
| WB7NNF | 2026-09-02 05:57:16 | 48.16880 | -117.50116 | 21° | 80km/h | 14278m | 4.6m/s | -50.7°C | 0% | 0hPa | 0V | 00:00:00 | 00:00:00 | 00:00:00 | |
| WB7NNF | 2026-09-02 05:56:55 | 48.16575 | -117.50250 | 22° | 53km/h | 14188m | 5.2m/s | -50.3°C | 0% | 0hPa | 0V | 00:00:00 | 00:00:00 | 00:00:00 | |
| WB7NNF | 2026-09-02 05:56:34 | 48.16280 | -117.50368 | 3° | 47km/h | 14099m | 3.4m/s | -50.5°C | 0% | 0hPa | 0V | 00:00:00 | 00:00:00 | 00:00:00 | |
| WB7NNF | 2026-09-02 05:56:12 | 48.15966 | -117.50517 | 11° | 38km/h | 14010m | 3.9m/s | -50.5°C | 0% | 0hPa | 0V | 00:00:00 | 00:00:00 | 00:00:00 | |
| WB7NNF | 2026-09-02 05:55:51 | 48.15674 | -117.50688 | 32° | 62km/h | 13931m | 3.5m/s | -50.1°C | 0% | 0hPa | 0V | 00:00:00 | 00:00:00 | 00:00:00 | |
| WB7NNF | 2026-09-02 05:55:31 | 48.15359 | -117.50832 | 34° | 68km/h | 13847m | 4.4m/s | -50.9°C | 0% | 0hPa | 0V | 00:00:00 | 00:00:00 | 00:00:00 | |
| WB7NNF | 2026-09-02 05:55:10 | 48.15070 | -117.50941 | 12° | 46km/h | 13769m | 4.1m/s | -51.4°C | 0% | 0hPa | 0V | 00:00:00 | 00:00:00 | 00:00:00 | |
| WB7NNF | 2026-09-02 05:54:48 | 48.14808 | -117.51076 | 25° | 64km/h | 13683m | 2.4m/s | -51.8°C | 0% | 0hPa | 0V | 00:00:00 | 00:00:00 | 00:00:00 | |
| WB7NNF | 2026-09-02 05:54:27 | 48.14568 | -117.51253 | 33° | 46km/h | 13597m | 3.0m/s | -51.3°C | 0% | 0hPa | 0V | 00:00:00 | 00:00:00 | 00:00:00 | |
| WB7NNF | 2026-09-02 05:54:05 | 48.14275 | -117.51465 | 33° | 68km/h | 13515m | 2.7m/s | -51.1°C | 0% | 0hPa | 0V | 00:00:00 | 00:00:00 | 00:00:00 | |
| WB7NNF | 2026-09-02 05:53:43 | 48.14013 | -117.51725 | 35° | 69km/h | 13434m | 5.1m/s | -51.1°C | 0% | 0hPa | 0V | 00:00:00 | 00:00:00 | 00:00:00 | |
| WB7NNF | 2026-09-02 05:53:23 | 48.13755 | -117.52003 | 45° | 53km/h | 13350m | 2.4m/s | -50.8°C | 0% | 0hPa | 0V | 00:00:00 | 00:00:00 | 00:00:00 | |
| WB7NNF | 2026-09-02 05:53:01 | 48.13466 | -117.52297 | 32° | 84km/h | 13267m | 3.4m/s | -50.6°C | 0% | 0hPa | 0V | 00:00:00 | 00:00:00 | 00:00:00 | |
| WB7NNF | 2026-09-02 05:52:41 | 48.13131 | -117.52618 | 23° | 95km/h | 13171m | 4.3m/s | -50.4°C | 0% | 0hPa | 0V | 00:00:00 | 00:00:00 | 00:00:00 | |
| WB7NNF | 2026-09-02 05:52:19 | 48.12721 | -117.52942 | 24° | 97km/h | 13077m | 6.1m/s | -51.1°C | 0% | 0hPa | 0V | 00:00:00 | 00:00:00 | 00:00:00 | |
| WB7NNF | 2026-09-02 05:51:58 | 48.12209 | -117.53226 | 10° | 111km/h | 12982m | 3.3m/s | -52.2°C | 0% | 0hPa | 0V | 00:00:00 | 00:00:00 | 00:00:00 | |
| WB7NNF | 2026-09-02 05:51:37 | 48.11747 | -117.53417 | 7° | 100km/h | 12895m | 4.5m/s | -52.5°C | 0% | 0hPa | 0V | 00:00:00 | 00:00:00 | 00:00:00 | |
| WB7NNF | 2026-09-02 05:51:17 | 48.11354 | -117.53529 | 11° | 53km/h | 12817m | 3.5m/s | -52.7°C | 0% | 0hPa | 0V | 00:00:00 | 00:00:00 | 00:00:00 | |
| WB7NNF | 2026-09-02 05:50:55 | 48.10981 | -117.53638 | 9° | 73km/h | 12733m | 4.6m/s | -52.7°C | 0% | 0hPa | 0V | 00:00:00 | 00:00:00 | 00:00:00 | |
| WB7NNF | 2026-09-02 05:50:34 | 48.10639 | -117.53742 | 358° | 80km/h | 12660m | 5.0m/s | -53.3°C | 0% | 0hPa | 0V | 00:00:00 | 00:00:00 | 00:00:00 | |
| WB7NNF | 2026-09-02 05:49:27 | 48.09315 | -117.54108 | 19° | 77km/h | 12428m | 4.4m/s | -56.4°C | 0% | 0hPa | 0V | 00:00:00 | 00:00:00 | 00:00:00 | |
| WB7NNF | 2026-09-02 05:49:06 | 48.08920 | -117.54292 | 30° | 66km/h | 12347m | 2.0m/s | -56.7°C | 0% | 0hPa | 0V | 00:00:00 | 00:00:00 | 00:00:00 | |
| WB7NNF | 2026-09-02 05:48:45 | 48.08493 | -117.54496 | 29° | 84km/h | 12255m | 3.0m/s | -57.6°C | 0% | 0hPa | 0V | 00:00:00 | 00:00:00 | 00:00:00 | |
| WB7NNF | 2026-09-02 05:48:03 | 48.07369 | -117.54674 | 5° | 122km/h | 12006m | 3.6m/s | -57.9°C | 0% | 0hPa | 0V | 00:00:00 | 00:00:00 | 00:00:00 | |
| WB7NNF | 2026-09-02 05:47:21 | 48.06127 | -117.54482 | 3° | 102km/h | 11820m | 4.0m/s | -57.2°C | 0% | 0hPa | 0V | 00:00:00 | 00:00:00 | 00:00:00 | |
| WB7NNF | 2026-09-02 05:47:01 | 48.05542 | -117.54403 | 353° | 106km/h | 11726m | 5.7m/s | -56.5°C | 0% | 0hPa | 0V | 00:00:00 | 00:00:00 | 00:00:00 | |
| WB7NNF | 2026-09-02 05:46:40 | 48.05008 | -117.54356 | 359° | 110km/h | 11640m | 2.8m/s | -56.2°C | 0% | 0hPa | 0V | 00:00:00 | 00:00:00 | 00:00:00 | |
| WB7NNF | 2026-09-02 05:46:20 | 48.04497 | -117.54317 | 2° | 88km/h | 11556m | 4.8m/s | -57.5°C | 0% | 0hPa | 0V | 00:00:00 | 00:00:00 | 00:00:00 | |
| WB7NNF | 2026-09-02 05:45:59 | 48.04063 | -117.54269 | 353° | 86km/h | 11473m | 4.1m/s | -57.4°C | 0% | 0hPa | 0V | 00:00:00 | 00:00:00 | 00:00:00 | |
| WB7NNF | 2026-09-02 05:45:39 | 48.03654 | -117.54213 | 358° | 88km/h | 11385m | 2.3m/s | -57.5°C | 0% | 0hPa | 0V | 00:00:00 | 00:00:00 | 00:00:00 | |
| WB7NNF | 2026-09-02 05:45:19 | 48.03280 | -117.54223 | 3° | 82km/h | 11303m | 6.2m/s | -56.9°C | 0% | 0hPa | 0V | 00:00:00 | 00:00:00 | 00:00:00 | |
| WB7NNF | 2026-09-02 05:44:58 | 48.02886 | -117.54243 | 7° | 73km/h | 11214m | 5.4m/s | -56.2°C | 0% | 0hPa | 0V | 00:00:00 | 00:00:00 | 00:00:00 | |
| WB7NNF | 2026-09-02 05:44:37 | 48.02491 | -117.54297 | 4° | 69km/h | 11129m | 3.8m/s | -55.7°C | 0% | 0hPa | 0V | 00:00:00 | 00:00:00 | 00:00:00 | |
| WB7NNF | 2026-09-02 05:44:17 | 48.02062 | -117.54355 | 358° | 88km/h | 11042m | 4.0m/s | -55.2°C | 0% | 0hPa | 0V | 00:00:00 | 00:00:00 | 00:00:00 | |
| WB7NNF | 2026-09-02 05:43:56 | 48.01642 | -117.54445 | 15° | 82km/h | 10961m | 4.5m/s | -54.5°C | 0% | 0hPa | 0V | 00:00:00 | 00:00:00 | 00:00:00 | |
| WB7NNF | 2026-09-02 05:43:36 | 48.01193 | -117.54536 | 12° | 99km/h | 10878m | 3.2m/s | -53.9°C | 0% | 0hPa | 0V | 00:00:00 | 00:00:00 | 00:00:00 | |
| WB7NNF | 2026-09-02 05:43:15 | 48.00751 | -117.54617 | 9° | 82km/h | 10805m | 4.3m/s | -53.3°C | 0% | 0hPa | 0V | 00:00:00 | 00:00:00 | 00:00:00 | |
| WB7NNF | 2026-09-02 05:42:55 | 48.00286 | -117.54690 | 3° | 80km/h | 10723m | 2.5m/s | -52.8°C | 0% | 0hPa | 0V | 00:00:00 | 00:00:00 | 00:00:00 | |
| WB7NNF | 2026-09-02 05:42:34 | 47.99830 | -117.54749 | 11° | 102km/h | 10641m | 5.1m/s | -52.2°C | 0% | 0hPa | 0V | 00:00:00 | 00:00:00 | 00:00:00 | |
| WB7NNF | 2026-09-02 05:41:53 | 47.98959 | -117.54775 | 353° | 80km/h | 10429m | 3.4m/s | -50.3°C | 0% | 0hPa | 0V | 00:00:00 | 00:00:00 | 00:00:00 | |
| WB7NNF | 2026-09-02 05:41:32 | 47.98557 | -117.54798 | 357° | 80km/h | 10342m | 4.5m/s | -49.6°C | 0% | 0hPa | 0V | 00:00:00 | 00:00:00 | 00:00:00 | |
| WB7NNF | 2026-09-02 05:41:12 | 47.98136 | -117.54802 | 357° | 78km/h | 10258m | 3.5m/s | -48.9°C | 0% | 0hPa | 0V | 00:00:00 | 00:00:00 | 00:00:00 | |
| WB7NNF | 2026-09-02 05:40:51 | 47.97736 | -117.54800 | 344° | 82km/h | 10171m | 3.0m/s | -48.1°C | 0% | 0hPa | 0V | 00:00:00 | 00:00:00 | 00:00:00 | |
| WB7NNF | 2026-09-02 05:40:31 | 47.97299 | -117.54793 | 355° | 91km/h | 10088m | 4.2m/s | -47.4°C | 0% | 0hPa | 0V | 00:00:00 | 00:00:00 | 00:00:00 | |
| WB7NNF | 2026-09-02 05:40:10 | 47.96878 | -117.54768 | 353° | 88km/h | 10006m | 2.8m/s | -46.7°C | 0% | 0hPa | 0V | 00:00:00 | 00:00:00 | 00:00:00 | |
| WB7NNF | 2026-09-02 05:39:50 | 47.96447 | -117.54726 | 3° | 93km/h | 9919m | 3.7m/s | -45.9°C | 0% | 0hPa | 0V | 00:00:00 | 00:00:00 | 00:00:00 | |
| WB7NNF | 2026-09-02 05:39:29 | 47.96006 | -117.54680 | 358° | 100km/h | 9834m | 2.6m/s | -45.2°C | 0% | 0hPa | 0V | 00:00:00 | 00:00:00 | 00:00:00 | |
| WB7NNF | 2026-09-02 05:39:07 | 47.95568 | -117.54636 | 4° | 82km/h | 9751m | 2.6m/s | -44.5°C | 0% | 0hPa | 0V | 00:00:00 | 00:00:00 | 00:00:00 | |
| WB7NNF | 2026-09-02 05:38:45 | 47.95108 | -117.54574 | 4° | 84km/h | 9658m | 5.4m/s | -43.7°C | 0% | 0hPa | 0V | 00:00:00 | 00:00:00 | 00:00:00 | |
| WB7NNF | 2026-09-02 05:38:24 | 47.94649 | -117.54536 | 352° | 86km/h | 9566m | 3.5m/s | -42.9°C | 0% | 0hPa | 0V | 00:00:00 | 00:00:00 | 00:00:00 | |
| WB7NNF | 2026-09-02 05:38:03 | 47.94238 | -117.54506 | 352° | 88km/h | 9482m | 3.0m/s | -42.2°C | 0% | 0hPa | 0V | 00:00:00 | 00:00:00 | 00:00:00 | |
| WB7NNF | 2026-09-02 05:37:43 | 47.93810 | -117.54482 | 356° | 86km/h | 9392m | 2.9m/s | -41.3°C | 0% | 0hPa | 0V | 00:00:00 | 00:00:00 | 00:00:00 | |
| WB7NNF | 2026-09-02 05:37:21 | 47.93377 | -117.54449 | 3° | 82km/h | 9299m | 5.5m/s | -40.5°C | 0% | 0hPa | 0V | 00:00:00 | 00:00:00 | 00:00:00 | |
| WB7NNF | 2026-09-02 05:37:00 | 47.92917 | -117.54422 | 352° | 88km/h | 9198m | 3.5m/s | -39.7°C | 0% | 0hPa | 0V | 00:00:00 | 00:00:00 | 00:00:00 | |
| WB7NNF | 2026-09-02 05:36:36 | 47.92405 | -117.54373 | 358° | 88km/h | 9091m | 5.1m/s | -38.8°C | 0% | 0hPa | 0V | 00:00:00 | 00:00:00 | 00:00:00 | |
| WB7NNF | 2026-09-02 05:36:15 | 47.91959 | -117.54311 | 353° | 80km/h | 9001m | 3.5m/s | -38.1°C | 0% | 0hPa | 0V | 00:00:00 | 00:00:00 | 00:00:00 | |
| WB7NNF | 2026-09-02 05:35:53 | 47.91521 | -117.54250 | 351° | 88km/h | 8908m | 5.2m/s | -37.3°C | 0% | 0hPa | 0V | 00:00:00 | 00:00:00 | 00:00:00 | |
| WB7NNF | 2026-09-02 05:35:32 | 47.91085 | -117.54176 | 357° | 82km/h | 8816m | 5.1m/s | -36.6°C | 0% | 0hPa | 0V | 00:00:00 | 00:00:00 | 00:00:00 | |
| WB7NNF | 2026-09-02 05:35:12 | 47.90650 | -117.54116 | 359° | 80km/h | 8722m | 5.2m/s | -35.8°C | 0% | 0hPa | 0V | 00:00:00 | 00:00:00 | 00:00:00 | |
| WB7NNF | 2026-09-02 05:34:51 | 47.90232 | -117.54060 | 358° | 86km/h | 8627m | 5.4m/s | -35.0°C | 0% | 0hPa | 0V | 00:00:00 | 00:00:00 | 00:00:00 | |
| WB7NNF | 2026-09-02 05:34:31 | 47.89792 | -117.54008 | 2° | 82km/h | 8536m | 3.3m/s | -34.2°C | 0% | 0hPa | 0V | 00:00:00 | 00:00:00 | 00:00:00 | |
| WB7NNF | 2026-09-02 05:34:10 | 47.89370 | -117.53962 | 356° | 82km/h | 8448m | 3.1m/s | -33.4°C | 0% | 0hPa | 0V | 00:00:00 | 00:00:00 | 00:00:00 | |
| WB7NNF | 2026-09-02 05:33:50 | 47.88924 | -117.53937 | 352° | 84km/h | 8361m | 5.5m/s | -32.7°C | 0% | 0hPa | 0V | 00:00:00 | 00:00:00 | 00:00:00 | |
| WB7NNF | 2026-09-02 05:33:29 | 47.88502 | -117.53899 | 2° | 100km/h | 8279m | 3.9m/s | -32.0°C | 0% | 0hPa | 0V | 00:00:00 | 00:00:00 | 00:00:00 | |
| WB7NNF | 2026-09-02 05:33:09 | 47.88066 | -117.53874 | 354° | 77km/h | 8191m | 2.6m/s | -31.3°C | 0% | 0hPa | 0V | 00:00:00 | 00:00:00 | 00:00:00 | |
| WB7NNF | 2026-09-02 05:32:48 | 47.87629 | -117.53861 | 359° | 78km/h | 8108m | 4.2m/s | -30.6°C | 0% | 0hPa | 0V | 00:00:00 | 00:00:00 | 00:00:00 | |
| WB7NNF | 2026-09-02 05:32:27 | 47.87199 | -117.53886 | 358° | 80km/h | 8028m | 7.6m/s | -30.1°C | 0% | 0hPa | 0V | 00:00:00 | 00:00:00 | 00:00:00 | |
| WB7NNF | 2026-09-02 05:32:07 | 47.86764 | -117.53939 | 4° | 88km/h | 7936m | 3.0m/s | -29.7°C | 0% | 0hPa | 0V | 00:00:00 | 00:00:00 | 00:00:00 | |
| WB7NNF | 2026-09-02 05:31:46 | 47.86348 | -117.54007 | 358° | 89km/h | 7868m | 2.7m/s | -29.4°C | 0% | 0hPa | 0V | 00:00:00 | 00:00:00 | 00:00:00 | |
| WB7NNF | 2026-09-02 05:31:26 | 47.85917 | -117.54077 | 9° | 82km/h | 7789m | 4.7m/s | -28.9°C | 0% | 0hPa | 0V | 00:00:00 | 00:00:00 | 00:00:00 | |
| WB7NNF | 2026-09-02 05:31:05 | 47.85514 | -117.54176 | 13° | 86km/h | 7709m | 5.4m/s | -28.4°C | 0% | 0hPa | 0V | 00:00:00 | 00:00:00 | 00:00:00 | |
| WB7NNF | 2026-09-02 05:30:45 | 47.85088 | -117.54313 | 13° | 88km/h | 7628m | 3.6m/s | -27.7°C | 0% | 0hPa | 0V | 00:00:00 | 00:00:00 | 00:00:00 | |
| WB7NNF | 2026-09-02 05:30:23 | 47.84671 | -117.54453 | 14° | 89km/h | 7545m | 4.2m/s | -27.0°C | 0% | 0hPa | 0V | 00:00:00 | 00:00:00 | 00:00:00 | |
| WB7NNF | 2026-09-02 05:30:02 | 47.84254 | -117.54615 | 16° | 82km/h | 7462m | 4.3m/s | -26.5°C | 0% | 0hPa | 0V | 00:00:00 | 00:00:00 | 00:00:00 | |
| WB7NNF | 2026-09-02 05:29:41 | 47.83831 | -117.54802 | 16° | 84km/h | 7369m | 4.2m/s | -26.1°C | 0% | 0hPa | 0V | 00:00:00 | 00:00:00 | 00:00:00 | |
| WB7NNF | 2026-09-02 05:29:20 | 47.83441 | -117.55027 | 15° | 82km/h | 7274m | 3.6m/s | -25.3°C | 0% | 0hPa | 0V | 00:00:00 | 00:00:00 | 00:00:00 | |
| WB7NNF | 2026-09-02 05:28:57 | 47.83044 | -117.55286 | 20° | 75km/h | 7182m | 5.2m/s | -24.8°C | 0% | 0hPa | 0V | 00:00:00 | 00:00:00 | 00:00:00 | |
| WB7NNF | 2026-09-02 05:28:36 | 47.82674 | -117.55501 | 24° | 80km/h | 7096m | 5.0m/s | -24.1°C | 0% | 0hPa | 0V | 00:00:00 | 00:00:00 | 00:00:00 | |
| WB7NNF | 2026-09-02 05:28:16 | 47.82331 | -117.55701 | 20° | 68km/h | 7015m | 4.6m/s | -23.7°C | 0% | 0hPa | 0V | 00:00:00 | 00:00:00 | 00:00:00 | |
| WB7NNF | 2026-09-02 05:27:55 | 47.81989 | -117.55901 | 19° | 75km/h | 6930m | 4.1m/s | -23.6°C | 0% | 0hPa | 0V | 00:00:00 | 00:00:00 | 00:00:00 | |
| WB7NNF | 2026-09-02 05:27:35 | 47.81664 | -117.56090 | 21° | 73km/h | 6851m | 3.6m/s | -23.7°C | 0% | 0hPa | 0V | 00:00:00 | 00:00:00 | 00:00:00 | |
| WB7NNF | 2026-09-02 05:27:14 | 47.81312 | -117.56277 | 27° | 71km/h | 6766m | 4.2m/s | -23.3°C | 0% | 0hPa | 0V | 00:00:00 | 00:00:00 | 00:00:00 | |
| WB7NNF | 2026-09-02 05:26:52 | 47.80962 | -117.56460 | 15° | 68km/h | 6682m | 3.6m/s | -22.7°C | 0% | 0hPa | 0V | 00:00:00 | 00:00:00 | 00:00:00 | |
| WB7NNF | 2026-09-02 05:26:31 | 47.80611 | -117.56653 | 27° | 69km/h | 6593m | 3.8m/s | -22.0°C | 0% | 0hPa | 0V | 00:00:00 | 00:00:00 | 00:00:00 | |
| WB7NNF | 2026-09-02 05:26:09 | 47.80277 | -117.56834 | 17° | 69km/h | 6510m | 4.0m/s | -21.3°C | 0% | 0hPa | 0V | 00:00:00 | 00:00:00 | 00:00:00 | |
| WB7NNF | 2026-09-02 05:25:49 | 47.79952 | -117.57014 | 22° | 66km/h | 6420m | 3.7m/s | -20.5°C | 0% | 0hPa | 0V | 00:00:00 | 00:00:00 | 00:00:00 | |
| WB7NNF | 2026-09-02 05:25:14 | 47.79401 | -117.57319 | 16° | 75km/h | 6293m | 2.4m/s | -19.4°C | 0% | 0hPa | 0V | 00:00:00 | 00:00:00 | 00:00:00 | |
| WB7NNF | 2026-09-02 05:24:54 | 47.79082 | -117.57484 | 20° | 53km/h | 6213m | 2.5m/s | -18.7°C | 0% | 0hPa | 0V | 00:00:00 | 00:00:00 | 00:00:00 | |
| WB7NNF | 2026-09-02 05:24:33 | 47.78790 | -117.57629 | 9° | 58km/h | 6135m | 3.6m/s | -18.2°C | 0% | 0hPa | 0V | 00:00:00 | 00:00:00 | 00:00:00 | |
| WB7NNF | 2026-09-02 05:24:13 | 47.78472 | -117.57767 | 28° | 47km/h | 6057m | 4.5m/s | -17.6°C | 0% | 0hPa | 0V | 00:00:00 | 00:00:00 | 00:00:00 | |
| WB7NNF | 2026-09-02 05:23:52 | 47.78184 | -117.57862 | 20° | 51km/h | 5975m | 4.2m/s | -17.0°C | 0% | 0hPa | 0V | 00:00:00 | 00:00:00 | 00:00:00 | |
| WB7NNF | 2026-09-02 05:23:32 | 47.77879 | -117.57960 | 5° | 60km/h | 5898m | 4.5m/s | -16.5°C | 0% | 0hPa | 0V | 00:00:00 | 00:00:00 | 00:00:00 | |
| WB7NNF | 2026-09-02 05:23:09 | 47.77556 | -117.58038 | 8° | 64km/h | 5821m | 3.1m/s | -15.8°C | 0% | 0hPa | 0V | 00:00:00 | 00:00:00 | 00:00:00 | |
| WB7NNF | 2026-09-02 05:22:36 | 47.77092 | -117.58147 | 16° | 53km/h | 5702m | 3.4m/s | -15.0°C | 0% | 0hPa | 0V | 00:00:00 | 00:00:00 | 00:00:00 | |
| WB7NNF | 2026-09-02 05:22:15 | 47.76820 | -117.58213 | 358° | 47km/h | 5633m | 2.2m/s | -14.6°C | 0% | 0hPa | 0V | 00:00:00 | 00:00:00 | 00:00:00 | |
| WB7NNF | 2026-09-02 05:21:55 | 47.76527 | -117.58296 | 26° | 60km/h | 5558m | 2.5m/s | -14.1°C | 0% | 0hPa | 0V | 00:00:00 | 00:00:00 | 00:00:00 | |
| WB7NNF | 2026-09-02 05:21:34 | 47.76230 | -117.58383 | 14° | 55km/h | 5489m | 3.9m/s | -13.5°C | 0% | 0hPa | 0V | 00:00:00 | 00:00:00 | 00:00:00 | |
| WB7NNF | 2026-09-02 05:21:14 | 47.75950 | -117.58419 | 357° | 71km/h | 5411m | 3.9m/s | -13.1°C | 0% | 0hPa | 0V | 00:00:00 | 00:00:00 | 00:00:00 | |
| WB7NNF | 2026-09-02 05:20:22 | 47.75240 | -117.58443 | 16° | 57km/h | 5213m | 3.7m/s | -12.4°C | 0% | 0hPa | 0V | 00:00:00 | 00:00:00 | 00:00:00 | |
| WB7NNF | 2026-09-02 05:19:59 | 47.74927 | -117.58470 | 1° | 57km/h | 5123m | 2.5m/s | -11.9°C | 0% | 0hPa | 0V | 00:00:00 | 00:00:00 | 00:00:00 | |
| WB7NNF | 2026-09-02 05:19:38 | 47.74686 | -117.58511 | 11° | 57km/h | 5050m | 4.3m/s | -11.6°C | 0% | 0hPa | 0V | 00:00:00 | 00:00:00 | 00:00:00 | |
| WB7NNF | 2026-09-02 05:19:14 | 47.74416 | -117.58558 | 347° | 42km/h | 4953m | 2.8m/s | -11.0°C | 0% | 0hPa | 0V | 00:00:00 | 00:00:00 | 00:00:00 | |
| WB7NNF | 2026-09-02 05:18:54 | 47.74183 | -117.58581 | 2° | 51km/h | 4846m | 4.4m/s | -10.0°C | 0% | 0hPa | 0V | 00:00:00 | 00:00:00 | 00:00:00 | |
| WB7NNF | 2026-09-02 05:18:34 | 47.73952 | -117.58676 | 35° | 38km/h | 4746m | 6.1m/s | -9.1°C | 0% | 0hPa | 0V | 00:00:00 | 00:00:00 | 00:00:00 | |
| WB7NNF | 2026-09-02 05:18:13 | 47.73744 | -117.58764 | 9° | 40km/h | 4641m | 3.6m/s | -8.1°C | 0% | 0hPa | 0V | 00:00:00 | 00:00:00 | 00:00:00 | |
| WB7NNF | 2026-09-02 05:17:52 | 47.73544 | -117.58893 | 23° | 55km/h | 4527m | 5.6m/s | -7.2°C | 0% | 0hPa | 0V | 00:00:00 | 00:00:00 | 00:00:00 | |
| WB7NNF | 2026-09-02 05:17:30 | 47.73332 | -117.59129 | 24° | 49km/h | 4419m | 4.7m/s | -6.3°C | 0% | 0hPa | 0V | 00:00:00 | 00:00:00 | 00:00:00 | |
| WB7NNF | 2026-09-02 05:17:08 | 47.73158 | -117.59395 | 28° | 38km/h | 4304m | 4.5m/s | -5.4°C | 0% | 0hPa | 0V | 00:00:00 | 00:00:00 | 00:00:00 | |
| WB7NNF | 2026-09-02 05:16:47 | 47.72963 | -117.59654 | 17° | 46km/h | 4207m | 4.4m/s | -4.6°C | 0% | 0hPa | 0V | 00:00:00 | 00:00:00 | 00:00:00 | |
| WB7NNF | 2026-09-02 05:16:13 | 47.72594 | -117.59992 | 21° | 44km/h | 4036m | 4.0m/s | -3.1°C | 0% | 0hPa | 0V | 00:00:00 | 00:00:00 | 00:00:00 |